Miami, Florida
Traffic Map
Current Weather Conditions
Miami, Florida
Broken Clouds
Broken Clouds
32°
Feels Like: 37°
Wind Chill: 32° Ceiling: 30000
Heat Index: 37° Visibility: 10mi
Dew Point: 23° Wind: 12mph
Humidity: 59% Direction: 140° (SE)
Pressure: 29.97in Gusts: 20mph
Raw Report DataKMIA 311853Z 14010G17KT 10SM SCT038CB SCT050 BKN300 32/23 A2997 RMK AO2 SLP148 CB NW-N MOV N T03220233
Traffic Incident Summary
Active as of:
Severity:
Category:
InformationThere was an issue retrieving the traffic information for this location. Please try a different location or try again shortly.
Advertisements
Track Severe Weather on mobile